»·PEaware :: N453WA UHPP-PASY

N453WA :: UHPP-PASY

FLIGHT INFORMATION

Flight Status: Arrived
Operator: Privately registered:
United States
More flights under this callsign
Pilot: Steve K. (2395)
Aircraft: DEHAVILLAND DH-6 TWIN OTTER
(DHC6)
More flights by this aircraft type
Origin: UHPP Yelizovo
Russian Federation
Destination: PASY Eareckson AS
United States
More flights between these airports :: More routes between these airports
Route: DIRECT
File this flight plan on PilotEdge
Remarks:
Altitude:
(Current/Filed)
17,000ft
Speed:
(Current/Filed)
150kts
Departed: 14-Feb-16 09:11 AM
Arrived: 14-Feb-16 11:18 AM
Distance/Time
Traveled:
566nm/2:07
Distance/Time
To Go:
Arrived

Flight Plot

Page will automatically refresh every two minutes.


Map Options




Map Legend


Flown Route
Filed Route
Departure Airport
Arrival Airport
Navaid (VOR, NDB)
Fix

Horizontal Profiles

Position Reports

Time Latitude Longitude Heading Altitude Ground
Speed
14-Feb-16 09:04 53.168584 158.785733 86 9653ft 125kts
14-Feb-16 09:05 53.170586 158.844445 86 11353ft 129kts
14-Feb-16 09:06 53.172573 158.903881 86 13054ft 127kts
14-Feb-16 09:07 53.174435 158.959778 86 14736ft 115kts
14-Feb-16 09:08 53.176005 159.006851 86 16344ft 89kts
14-Feb-16 09:09 53.178028 159.070891 87 16472ft 178kts
14-Feb-16 09:10 53.181055 159.160372 87 16463ft 202kts
14-Feb-16 09:11 53.184066 159.255337 87 16462ft 206kts
14-Feb-16 09:12 53.186952 159.351287 87 16462ft 207kts
14-Feb-16 09:13 53.189754 159.447222 87 16461ft 207kts
14-Feb-16 09:14 53.192485 159.543403 87 16461ft 207kts
14-Feb-16 09:15 53.195130 159.639292 87 16461ft 208kts
14-Feb-16 09:16 53.197631 159.732399 87 16461ft 194kts
14-Feb-16 09:17 53.199960 159.821585 87 16461ft 191kts
14-Feb-16 09:18 53.202198 159.909992 87 16462ft 190kts
14-Feb-16 09:19 53.204362 159.998175 87 16462ft 190kts
14-Feb-16 09:20 53.206465 160.086540 87 16462ft 190kts
14-Feb-16 09:21 53.208781 160.174399 88 16462ft 190kts
14-Feb-16 09:22 53.210824 160.262784 88 16462ft 190kts
14-Feb-16 09:23 53.212735 160.350969 88 16462ft 190kts
14-Feb-16 09:24 53.214574 160.439178 88 16462ft 190kts
14-Feb-16 09:25 53.216344 160.527272 88 16462ft 190kts
14-Feb-16 09:26 53.218054 160.615576 88 16462ft 190kts
14-Feb-16 09:27 53.219698 160.703919 88 16462ft 190kts
14-Feb-16 09:28 53.221273 160.792031 88 16462ft 190kts
14-Feb-16 09:29 53.222785 160.880210 88 16462ft 190kts
14-Feb-16 09:30 53.224235 160.968660 88 16462ft 190kts
14-Feb-16 09:31 53.225616 161.056889 88 16462ft 190kts
14-Feb-16 09:32 53.227137 161.144975 89 16462ft 190kts
14-Feb-16 09:33 53.228534 161.233419 89 16462ft 190kts
14-Feb-16 09:34 53.229737 161.321697 89 16462ft 190kts
14-Feb-16 09:35 53.230862 161.410138 89 16462ft 190kts
14-Feb-16 09:36 53.231916 161.498293 89 16462ft 190kts
14-Feb-16 09:37 53.232907 161.586605 89 16462ft 190kts
14-Feb-16 09:38 53.233836 161.675246 89 16462ft 190kts
14-Feb-16 09:39 53.234697 161.763630 89 16462ft 190kts
14-Feb-16 09:40 53.235491 161.851915 89 16462ft 190kts
14-Feb-16 09:41 53.236219 161.940066 89 16462ft 190kts
14-Feb-16 09:42 53.236866 162.026075 89 16462ft 190kts
14-Feb-16 09:43 53.237548 162.116747 89 16462ft 190kts
14-Feb-16 09:44 53.238347 162.205222 90 16462ft 190kts
14-Feb-16 09:45 53.238849 162.293660 90 16462ft 190kts
14-Feb-16 09:46 53.239257 162.382160 90 16462ft 190kts
14-Feb-16 09:47 53.239595 162.470694 90 16462ft 190kts
14-Feb-16 09:48 53.239867 162.559197 90 16462ft 190kts
14-Feb-16 09:49 53.240074 162.647470 90 16462ft 190kts
14-Feb-16 09:50 53.240216 162.736019 90 16462ft 190kts
14-Feb-16 09:51 53.240291 162.824864 90 16435ft 191kts
14-Feb-16 09:52 53.240301 162.913486 90 16435ft 190kts
14-Feb-16 09:53 53.240260 162.987253 90 16435ft 190kts
14-Feb-16 09:54 53.240150 163.075708 90 16435ft 190kts
14-Feb-16 09:55 53.240240 163.164292 90 16435ft 190kts
14-Feb-16 09:56 53.240088 163.253055 90 16435ft 190kts
14-Feb-16 09:57 53.239792 163.341504 90 16435ft 190kts
14-Feb-16 09:58 53.239420 163.430139 90 16435ft 190kts
14-Feb-16 09:59 53.238985 163.518044 91 16435ft 190kts
14-Feb-16 10:00 53.238479 163.607126 91 16435ft 190kts
14-Feb-16 10:01 53.237909 163.695666 91 16435ft 190kts
14-Feb-16 10:02 53.237272 163.784424 91 16435ft 190kts
14-Feb-16 10:03 53.236572 163.872857 91 16435ft 190kts
14-Feb-16 10:04 53.235804 163.961532 91 16435ft 190kts
14-Feb-16 10:05 53.234972 164.050033 91 16435ft 190kts
14-Feb-16 10:06 53.234255 164.138525 91 16435ft 190kts
14-Feb-16 10:07 53.233459 164.226923 91 16435ft 190kts
14-Feb-16 10:08 53.232450 164.315503 91 16435ft 190kts
14-Feb-16 10:09 53.231358 164.404054 91 16435ft 190kts
14-Feb-16 10:10 53.230198 164.492572 91 16435ft 190kts
14-Feb-16 10:11 53.228972 164.581119 91 16435ft 190kts
14-Feb-16 10:12 53.227682 164.669542 91 16435ft 190kts
14-Feb-16 10:13 53.226322 164.758263 91 16435ft 190kts
14-Feb-16 10:14 53.224903 164.846535 91 16435ft 190kts
14-Feb-16 10:15 53.223424 164.935121 90 16435ft 190kts
14-Feb-16 10:16 53.221996 165.023626 91 16435ft 190kts
14-Feb-16 10:17 53.220424 165.112408 91 16435ft 190kts
14-Feb-16 10:18 53.219026 165.200959 91 16435ft 190kts
14-Feb-16 10:19 53.217311 165.289565 91 16435ft 190kts
14-Feb-16 10:20 53.215501 165.377973 91 16435ft 191kts
14-Feb-16 10:21 53.213617 165.466567 91 16435ft 191kts
14-Feb-16 10:22 53.211664 165.555304 91 16435ft 191kts
14-Feb-16 10:23 53.209649 165.643847 91 16435ft 191kts
14-Feb-16 10:24 53.207568 165.732403 91 16435ft 191kts
14-Feb-16 10:25 53.205419 165.821021 91 16435ft 191kts
14-Feb-16 10:26 53.203203 165.909722 91 16435ft 191kts
14-Feb-16 10:27 53.200929 165.998077 91 16435ft 191kts
14-Feb-16 10:28 53.198586 166.086580 91 16435ft 191kts
14-Feb-16 10:29 53.196463 166.175283 92 16406ft 192kts
14-Feb-16 10:30 53.194040 166.264413 92 16375ft 192kts
14-Feb-16 10:31 53.191496 166.353332 92 16351ft 191kts
14-Feb-16 10:32 53.188892 166.441767 92 16351ft 190kts
14-Feb-16 10:33 53.186221 166.530203 92 16351ft 190kts
14-Feb-16 10:34 53.183490 166.618468 92 16351ft 190kts
14-Feb-16 10:35 53.180688 166.706856 92 16351ft 190kts
14-Feb-16 10:36 53.177827 166.795054 92 16351ft 190kts
14-Feb-16 10:37 53.174901 166.883254 92 16351ft 190kts
14-Feb-16 10:38 53.171901 166.971685 92 16351ft 190kts
14-Feb-16 10:39 53.168845 167.059835 92 16351ft 190kts
14-Feb-16 10:40 53.165995 167.146365 93 16351ft 190kts
14-Feb-16 10:41 53.162900 167.235784 93 16351ft 190kts
14-Feb-16 10:42 53.159677 167.323594 93 16351ft 190kts
14-Feb-16 10:43 53.156360 167.411776 93 16351ft 190kts
14-Feb-16 10:44 53.153009 167.499113 93 16351ft 190kts
14-Feb-16 10:45 53.149492 167.588983 93 16351ft 190kts
14-Feb-16 10:46 53.139077 167.845600 93 16351ft 190kts
14-Feb-16 10:47 53.149679 168.293262 303 16334ft 189kts
14-Feb-16 10:48 53.136037 168.253458 180 16334ft 188kts
14-Feb-16 10:49 53.108086 168.489135 95 16351ft 190kts
14-Feb-16 10:50 53.076754 169.028666 95 16351ft 190kts
14-Feb-16 10:51 53.044975 169.552246 95 16360ft 190kts
14-Feb-16 10:52 53.011436 170.082059 95 16360ft 190kts
14-Feb-16 10:53 52.977147 170.602167 96 16360ft 190kts
14-Feb-16 10:54 52.941918 171.116198 96 16360ft 191kts
14-Feb-16 10:55 52.904002 171.648841 96 16360ft 191kts
14-Feb-16 10:56 52.861966 172.084953 99 16360ft 191kts
14-Feb-16 10:57 52.807111 172.590670 100 16360ft 191kts
14-Feb-16 10:58 52.788257 172.761617 100 16360ft 191kts
14-Feb-16 10:59 52.778672 172.847979 100 16360ft 191kts
14-Feb-16 11:00 52.769045 172.934362 99 16360ft 191kts
14-Feb-16 11:01 52.759383 173.020701 99 16360ft 191kts
14-Feb-16 11:02 52.749714 173.106746 100 16360ft 191kts
14-Feb-16 11:03 52.739952 173.193252 100 16360ft 191kts
14-Feb-16 11:04 52.730193 173.279384 100 16360ft 191kts
14-Feb-16 11:05 52.720368 173.365735 100 16360ft 191kts
14-Feb-16 11:06 52.710629 173.450983 100 16360ft 191kts
14-Feb-16 11:07 52.700088 173.536757 102 16360ft 191kts
14-Feb-16 11:08 52.687600 173.621826 104 15481ft 225kts
14-Feb-16 11:09 52.681513 173.710163 81 12338ft 190kts
14-Feb-16 11:10 52.689259 173.909874 84 5459ft 180kts
14-Feb-16 11:11 52.701628 174.048100 57 1072ft 156kts
14-Feb-16 11:12 52.713015 174.109575 107 102ft 20kts
14-Feb-16 11:13 52.712951 174.109994 97 102ft 0kts
14-Feb-16 11:14 52.712951 174.109994 97 102ft 0kts
14-Feb-16 11:15 52.712951 174.109994 97 102ft 0kts
14-Feb-16 11:16 52.712951 174.109994 97 102ft 0kts
14-Feb-16 11:17 52.712951 174.109994 97 102ft 0kts
14-Feb-16 11:18 52.712951 174.109994 97 102ft 0kts
14-Feb-16 11:19 52.712951 174.109994 97 102ft 0kts
14-Feb-16 11:20 52.712951 174.109994 97 102ft 0kts
14-Feb-16 11:21 52.712951 174.109994 97 102ft 0kts
14-Feb-16 11:22 52.712951 174.109994 97 102ft 0kts

Navigation Log

Ident Type
Flight plan parsing failed, navigation log unavailable